Time;durP1;ratioP1;P1;durP2;ratioP2;P2;SDS_P1;SDS_P2;PMS_P1;PMS_P2;Temp;Humidity;BMP_temperature;BMP_pressure;BME280_temperature;BME280_humidity;BME280_pressure;Samples;Min_cycle;Max_cycle;Signal;HPM_P1;HPM_P2
2022/07/25 00:02:05;;;;;;;2.17;2.17;;;26.40;61.90;;;;;;5089544;27;43956;-69
2022/07/25 00:04:35;;;;;;;1.95;1.95;;;26.10;62.30;;;;;;5089969;27;43325;-70
2022/07/25 00:07:03;;;;;;;2.00;2.00;;;26.00;62.70;;;;;;5090247;27;44083;-70
2022/07/25 00:09:31;;;;;;;2.00;2.00;;;25.80;63.20;;;;;;5088034;27;45765;-69
2022/07/25 00:12:01;;;;;;;1.88;1.88;;;25.70;63.70;;;;;;5092871;27;43957;-70
2022/07/25 00:14:30;;;;;;;1.70;1.70;;;25.60;64.00;;;;;;5089938;27;43430;-69
2022/07/25 00:16:58;;;;;;;1.90;1.90;;;25.50;64.40;;;;;;5090420;27;43818;-69
2022/07/25 00:19:26;;;;;;;2.10;2.10;;;25.40;64.60;;;;;;5089371;27;45170;-70
2022/07/25 00:21:54;;;;;;;2.00;2.00;;;25.30;64.80;;;;;;5089391;27;43982;-70
2022/07/25 00:24:22;;;;;;;2.22;2.22;;;25.30;65.00;;;;;;5089571;27;44041;-69
2022/07/25 00:26:50;;;;;;;2.13;2.13;;;25.30;65.50;;;;;;5090025;27;43937;-69
2022/07/25 00:29:20;;;;;;;2.30;2.30;;;25.20;65.90;;;;;;5070892;28;46146;-69
2022/07/25 00:31:48;;;;;;;2.13;2.13;;;25.30;65.80;;;;;;5089249;27;43746;-70
2022/07/25 00:34:16;;;;;;;2.10;2.10;;;25.40;65.40;;;;;;5088901;27;44051;-69
2022/07/25 00:36:44;;;;;;;2.10;2.10;;;25.60;65.00;;;;;;5089623;27;43951;-70
2022/07/25 00:39:12;;;;;;;2.30;2.30;;;25.70;64.30;;;;;;5089077;27;43980;-69
2022/07/25 00:41:40;;;;;;;2.00;2.00;;;25.90;63.90;;;;;;5088787;27;44048;-69
2022/07/25 00:44:09;;;;;;;2.17;2.17;;;26.10;63.40;;;;;;5088803;27;43959;-70
2022/07/25 00:46:39;;;;;;;2.00;2.00;;;26.20;62.80;;;;;;5089670;27;43988;-69
2022/07/25 00:49:11;;;;;;;2.10;2.10;;;26.40;62.40;;;;;;5089020;27;44074;-69
2022/07/25 00:51:39;;;;;;;2.13;2.13;;;26.50;62.00;;;;;;5089146;27;43913;-70
2022/07/25 00:54:09;;;;;;;2.10;2.10;;;26.60;61.70;;;;;;5088787;27;43813;-70
2022/07/25 00:56:37;;;;;;;2.08;2.08;;;26.70;61.40;;;;;;5089237;27;43991;-70
2022/07/25 00:59:05;;;;;;;2.10;2.10;;;26.70;61.20;;;;;;5088757;27;44690;-69
2022/07/25 01:01:34;;;;;;;2.40;2.40;;;26.80;61.00;;;;;;5089202;27;43967;-69
2022/07/25 01:04:04;;;;;;;1.92;1.92;;;26.80;60.90;;;;;;5088856;27;43965;-69
2022/07/25 01:06:32;;;;;;;2.35;2.35;;;26.60;61.20;;;;;;5089483;27;44028;-70
2022/07/25 01:09:00;;;;;;;2.00;2.00;;;26.50;61.70;;;;;;5088836;27;43756;-70
2022/07/25 01:11:28;;;;;;;2.28;2.28;;;26.30;62.30;;;;;;5089080;27;43885;-70
2022/07/25 01:13:56;;;;;;;2.00;2.00;;;26.10;62.40;;;;;;5070453;28;43434;-69
2022/07/25 01:16:25;;;;;;;1.90;1.90;;;25.90;63.30;;;;;;5089035;27;44004;-70
2022/07/25 01:18:53;;;;;;;1.88;1.88;;;25.70;63.70;;;;;;5097212;27;43882;-70
2022/07/25 01:21:22;;;;;;;2.10;2.10;;;25.60;64.10;;;;;;5089440;27;44413;-70
2022/07/25 01:23:51;;;;;;;2.25;2.25;;;25.50;64.40;;;;;;5089569;27;44034;-70
2022/07/25 01:26:19;;;;;;;1.90;1.90;;;25.40;64.70;;;;;;5108576;27;43970;-70
2022/07/25 01:28:47;;;;;;;2.17;2.17;;;25.40;65.00;;;;;;5108174;27;43971;-70
2022/07/25 01:31:15;;;;;;;2.03;2.03;;;25.30;65.20;;;;;;5108072;27;44017;-69
2022/07/25 01:33:43;;;;;;;1.80;1.80;;;25.30;65.30;;;;;;5108087;27;43934;-69
2022/07/25 01:36:11;;;;;;;1.80;1.80;;;25.30;65.50;;;;;;5108159;27;43470;-70
2022/07/25 01:38:40;;;;;;;1.90;1.90;;;25.20;65.60;;;;;;5107792;27;44962;-69
2022/07/25 01:41:08;;;;;;;2.20;2.20;;;25.20;65.70;;;;;;5107502;27;43924;-69
2022/07/25 01:43:36;;;;;;;2.15;2.15;;;25.20;65.80;;;;;;5107941;27;43985;-69
2022/07/25 01:46:05;;;;;;;2.20;2.20;;;25.10;65.80;;;;;;5108426;27;44025;-70
2022/07/25 01:48:33;;;;;;;1.98;1.98;;;25.10;65.90;;;;;;5081304;27;44627;-70
2022/07/25 01:51:01;;;;;;;2.20;2.20;;;25.10;66.20;;;;;;5107881;27;44077;-68
2022/07/25 01:53:30;;;;;;;2.30;2.30;;;25.10;66.70;;;;;;5108099;27;43414;-69
2022/07/25 01:56:00;;;;;;;1.92;1.92;;;25.10;66.00;;;;;;5081985;27;44081;-70
2022/07/25 01:58:30;;;;;;;2.20;2.20;;;25.10;66.00;;;;;;5082031;27;43939;-69
2022/07/25 02:00:58;;;;;;;2.20;2.20;;;25.10;66.80;;;;;;5088031;27;44135;-68
2022/07/25 02:03:32;;;;;;;2.50;2.50;;;25.20;67.20;;;;;;5087670;27;43910;-69
2022/07/25 02:06:01;;;;;;;2.10;2.10;;;25.30;66.40;;;;;;5088484;27;43756;-70
2022/07/25 02:08:29;;;;;;;2.25;2.25;;;25.50;65.80;;;;;;5087955;27;43956;-70
2022/07/25 02:10:59;;;;;;;2.10;2.10;;;25.70;65.00;;;;;;5087742;27;44006;-70
2022/07/25 02:13:27;;;;;;;2.50;2.50;;;26.00;64.10;;;;;;5087099;27;43836;-70
2022/07/25 02:15:56;;;;;;;2.20;2.20;;;26.20;63.50;;;;;;5088024;27;44048;-70
2022/07/25 02:18:24;;;;;;;2.05;2.05;;;26.40;62.70;;;;;;5087639;27;43913;-71
2022/07/25 02:20:52;;;;;;;2.13;2.13;;;26.60;62.20;;;;;;5087370;27;43895;-69
2022/07/25 02:23:20;;;;;;;2.50;2.50;;;26.80;61.60;;;;;;5087535;27;44051;-69
2022/07/25 02:25:48;;;;;;;2.30;2.30;;;26.90;61.20;;;;;;5088114;27;43402;-70
2022/07/25 02:28:17;;;;;;;2.15;2.15;;;26.90;60.80;;;;;;5068990;27;46021;-70
2022/07/25 02:30:45;;;;;;;2.40;2.40;;;27.10;60.70;;;;;;5087421;27;43462;-70
2022/07/25 02:33:13;;;;;;;2.55;2.55;;;27.10;60.50;;;;;;5087646;27;43916;-69
2022/07/25 02:35:41;;;;;;;2.20;2.20;;;27.10;60.20;;;;;;5087631;27;44096;-71
2022/07/25 02:38:09;;;;;;;2.28;2.28;;;27.20;60.20;;;;;;5087324;27;43591;-69
2022/07/25 02:40:37;;;;;;;2.20;2.20;;;27.20;60.10;;;;;;5068532;27;44816;-70
2022/07/25 02:43:05;;;;;;;2.50;2.50;;;27.20;59.90;;;;;;5087399;27;43869;-69
2022/07/25 02:45:34;;;;;;;2.50;2.50;;;27.20;59.80;;;;;;5087543;27;43866;-69
2022/07/25 02:48:02;;;;;;;2.13;2.13;;;27.30;59.90;;;;;;5087519;27;43629;-70
2022/07/25 02:50:30;;;;;;;2.40;2.40;;;27.30;59.80;;;;;;5087499;27;43897;-69
2022/07/25 02:52:58;;;;;;;2.10;2.10;;;27.30;59.80;;;;;;5087627;27;43407;-70
2022/07/25 02:55:26;;;;;;;2.00;2.00;;;27.30;59.80;;;;;;5087264;27;44054;-69
2022/07/25 02:57:54;;;;;;;2.30;2.30;;;27.30;59.80;;;;;;5068824;27;46149;-68
2022/07/25 03:00:22;;;;;;;2.13;2.13;;;27.20;59.90;;;;;;5102560;27;44175;-69
2022/07/25 03:02:52;;;;;;;2.50;2.50;;;27.00;61.30;;;;;;5106678;27;44253;-69
2022/07/25 03:05:20;;;;;;;2.20;2.20;;;26.70;61.90;;;;;;5107204;27;43438;-70
2022/07/25 03:07:49;;;;;;;2.13;2.10;;;26.50;61.70;;;;;;5106421;27;43914;-69
2022/07/25 03:10:17;;;;;;;2.20;2.20;;;26.30;62.20;;;;;;5106661;27;43864;-70
2022/07/25 03:12:45;;;;;;;2.20;2.20;;;26.10;62.90;;;;;;5106753;27;43889;-70
2022/07/25 03:15:13;;;;;;;2.08;2.08;;;25.90;63.70;;;;;;5107187;27;43951;-70
2022/07/25 03:17:41;;;;;;;2.13;2.13;;;25.80;64.20;;;;;;5106041;27;43919;-69
2022/07/25 03:20:11;;;;;;;2.15;2.15;;;25.60;64.60;;;;;;5106681;27;43805;-69
2022/07/25 03:22:39;;;;;;;2.40;2.40;;;25.60;64.90;;;;;;5106529;27;43318;-68
2022/07/25 03:25:08;;;;;;;2.30;2.30;;;25.50;65.10;;;;;;5107421;27;43849;-69
2022/07/25 03:27:48;;;;;;;2.17;2.17;;;25.40;65.80;;;;;;5109849;27;44777;-69
2022/07/25 03:30:16;;;;;;;2.20;2.20;;;25.40;66.10;;;;;;5110041;27;43985;-69
2022/07/25 03:32:44;;;;;;;2.42;2.42;;;25.50;66.00;;;;;;5109763;27;43984;-69
2022/07/25 03:35:14;;;;;;;2.42;2.42;;;25.60;65.60;;;;;;5110321;27;43922;-69
2022/07/25 03:37:42;;;;;;;2.50;2.50;;;25.70;64.90;;;;;;5109567;27;43968;-70
2022/07/25 03:40:11;;;;;;;2.47;2.47;;;25.90;64.20;;;;;;5109534;27;43995;-70
2022/07/25 03:42:40;;;;;;;2.20;2.20;;;26.10;63.70;;;;;;5109948;27;44088;-70
2022/07/25 03:45:09;;;;;;;2.50;2.40;;;26.30;63.20;;;;;;5110273;27;43852;-70
2022/07/25 03:47:37;;;;;;;2.20;2.20;;;26.40;62.70;;;;;;5109477;27;43896;-69
2022/07/25 03:50:06;;;;;;;2.40;2.40;;;26.50;62.30;;;;;;5109704;27;44013;-69
2022/07/25 03:52:37;;;;;;;2.20;2.20;;;26.70;62.00;;;;;;5090082;27;43403;-69
2022/07/25 03:55:06;;;;;;;2.30;2.30;;;26.70;61.80;;;;;;5090694;27;44007;-68
2022/07/25 03:57:34;;;;;;;2.53;2.53;;;26.80;61.60;;;;;;5089868;27;44055;-69
2022/07/25 04:00:02;;;;;;;2.40;2.30;;;26.80;61.30;;;;;;5090130;27;43956;-71
2022/07/25 04:02:32;;;;;;;2.30;2.30;;;26.80;61.30;;;;;;5093557;27;43999;-69
2022/07/25 04:05:00;;;;;;;2.63;2.63;;;26.70;61.70;;;;;;5110468;27;43806;-70
2022/07/25 04:07:28;;;;;;;2.40;2.40;;;26.50;62.20;;;;;;5109621;27;44031;-69
2022/07/25 04:09:58;;;;;;;2.33;2.30;;;26.30;62.60;;;;;;5109607;27;43959;-69
2022/07/25 04:12:26;;;;;;;2.45;2.45;;;26.10;62.70;;;;;;5089770;27;43338;-69
2022/07/25 04:14:54;;;;;;;2.30;2.30;;;25.90;63.00;;;;;;5083691;27;43930;-69
2022/07/25 04:17:22;;;;;;;2.40;2.40;;;25.80;63.90;;;;;;5082563;27;45099;-69
2022/07/25 04:19:52;;;;;;;2.33;2.33;;;25.60;64.30;;;;;;5083210;27;43822;-70
2022/07/25 04:22:21;;;;;;;2.08;2.08;;;25.50;64.40;;;;;;5103087;27;44148;-70
2022/07/25 04:24:49;;;;;;;2.08;2.08;;;25.40;64.80;;;;;;5109550;27;43991;-69
2022/07/25 04:27:18;;;;;;;2.50;2.50;;;25.30;65.10;;;;;;5090206;27;46118;-69
2022/07/25 04:29:46;;;;;;;2.42;2.42;;;25.30;65.40;;;;;;5090469;27;44059;-70
2022/07/25 04:32:15;;;;;;;2.50;2.50;;;25.30;66.40;;;;;;5109269;27;43362;-70
2022/07/25 04:34:51;;;;;;;2.17;2.17;;;25.20;66.60;;;;;;5109589;27;43971;-69
2022/07/25 04:37:19;;;;;;;2.30;2.30;;;25.20;66.60;;;;;;5100272;27;43950;-70
2022/07/25 04:39:47;;;;;;;2.23;2.23;;;25.30;66.40;;;;;;5104255;27;44064;-69
2022/07/25 04:42:15;;;;;;;2.42;2.42;;;25.50;66.00;;;;;;5108607;27;43880;-69
2022/07/25 04:44:44;;;;;;;2.42;2.42;;;25.60;65.50;;;;;;5109523;27;43373;-69
2022/07/25 04:47:12;;;;;;;2.63;2.63;;;25.80;64.80;;;;;;5107114;27;43975;-70
2022/07/25 04:49:42;;;;;;;2.40;2.40;;;26.00;64.40;;;;;;5089263;27;43434;-69
2022/07/25 04:52:10;;;;;;;2.75;2.72;;;26.10;64.00;;;;;;5089411;27;43880;-69
2022/07/25 04:54:38;;;;;;;2.58;2.58;;;26.20;63.50;;;;;;5089715;27;43907;-69
2022/07/25 04:57:06;;;;;;;2.30;2.30;;;26.40;63.00;;;;;;5089001;27;43936;-69
2022/07/25 04:59:34;;;;;;;2.60;2.60;;;26.50;62.80;;;;;;5088930;27;43913;-70
2022/07/25 05:02:03;;;;;;;2.50;2.50;;;26.60;62.40;;;;;;5089367;27;43372;-69
2022/07/25 05:04:32;;;;;;;2.58;2.58;;;26.70;62.20;;;;;;5089852;27;43915;-69
2022/07/25 05:07:03;;;;;;;2.40;2.30;;;26.70;61.90;;;;;;5102414;27;43616;-69
2022/07/25 05:09:31;;;;;;;2.40;2.40;;;26.80;61.70;;;;;;5089027;27;43436;-68
2022/07/25 05:11:59;;;;;;;2.40;2.40;;;26.70;61.70;;;;;;5091802;27;43336;-69
2022/07/25 05:14:27;;;;;;;2.50;2.50;;;26.50;62.20;;;;;;5108866;27;43934;-70
2022/07/25 05:16:55;;;;;;;2.58;2.58;;;26.30;62.60;;;;;;5108388;27;45125;-69
2022/07/25 05:19:24;;;;;;;2.60;2.60;;;26.20;62.80;;;;;;5108460;27;43954;-69
2022/07/25 05:21:52;;;;;;;2.35;2.35;;;26.00;64.20;;;;;;5108675;27;44025;-69
2022/07/25 05:24:21;;;;;;;2.45;2.45;;;25.80;64.20;;;;;;5092398;27;44119;-69
2022/07/25 05:26:49;;;;;;;2.63;2.63;;;25.60;64.50;;;;;;5091775;27;43986;-70
2022/07/25 05:29:17;;;;;;;2.45;2.45;;;25.60;65.00;;;;;;5108262;27;43983;-69
2022/07/25 05:31:45;;;;;;;2.40;2.40;;;25.50;65.30;;;;;;5089803;27;44029;-69
2022/07/25 05:34:13;;;;;;;2.63;2.63;;;25.40;65.50;;;;;;5098629;27;43351;-69
2022/07/25 05:36:43;;;;;;;2.40;2.38;;;25.30;65.70;;;;;;5091623;27;44784;-69
2022/07/25 05:39:14;;;;;;;2.40;2.40;;;25.30;66.00;;;;;;5089671;27;44971;-69
2022/07/25 05:41:42;;;;;;;2.40;2.40;;;25.30;66.20;;;;;;5108181;27;43996;-71
2022/07/25 05:44:10;;;;;;;2.30;2.30;;;25.20;66.20;;;;;;5108751;27;44031;-69
2022/07/25 05:46:40;;;;;;;2.20;2.20;;;25.20;66.30;;;;;;5108026;27;43760;-69
2022/07/25 05:49:08;;;;;;;2.28;2.28;;;25.10;66.30;;;;;;5088113;27;44386;-69
2022/07/25 05:51:36;;;;;;;2.70;2.60;;;25.20;67.30;;;;;;5090743;27;44084;-69
2022/07/25 05:54:05;;;;;;;2.40;2.40;;;25.20;67.20;;;;;;5099484;27;43928;-70
2022/07/25 05:56:34;;;;;;;2.93;2.93;;;25.30;67.30;;;;;;5107965;27;43947;-70
2022/07/25 05:59:02;;;;;;;2.40;2.40;;;25.40;67.00;;;;;;5107905;27;43995;-70
2022/07/25 06:01:30;;;;;;;2.60;2.60;;;25.50;66.30;;;;;;5108122;27;43959;-69
2022/07/25 06:03:58;;;;;;;2.70;2.70;;;25.70;65.90;;;;;;5108423;27;44078;-69
2022/07/25 06:06:26;;;;;;;2.55;2.55;;;25.80;65.40;;;;;;5107741;27;43996;-69
2022/07/25 06:08:54;;;;;;;2.50;2.50;;;25.90;65.00;;;;;;5107776;27;43949;-69
2022/07/25 06:11:25;;;;;;;2.53;2.53;;;26.10;64.60;;;;;;5103382;27;43971;-68
2022/07/25 06:13:57;;;;;;;2.70;2.70;;;26.20;64.10;;;;;;5088517;27;44446;-69
2022/07/25 06:16:25;;;;;;;2.40;2.40;;;26.30;63.60;;;;;;5093272;27;43961;-69
2022/07/25 06:18:53;;;;;;;2.40;2.40;;;26.40;63.20;;;;;;5107134;27;43983;-69
2022/07/25 06:21:21;;;;;;;2.50;2.50;;;26.60;62.80;;;;;;5107505;27;44053;-69
2022/07/25 06:23:49;;;;;;;2.28;2.28;;;26.60;62.80;;;;;;5102669;27;43924;-70
2022/07/25 06:26:17;;;;;;;2.33;2.30;;;26.40;63.10;;;;;;5087741;27;44864;-69
2022/07/25 06:28:48;;;;;;;2.60;2.60;;;26.30;63.40;;;;;;5087666;27;43358;-69
2022/07/25 06:31:16;;;;;;;2.60;2.50;;;26.10;63.70;;;;;;5087103;27;43908;-70
2022/07/25 06:33:44;;;;;;;2.50;2.50;;;25.90;64.20;;;;;;5088075;27;43836;-69
2022/07/25 06:36:12;;;;;;;2.22;2.22;;;25.70;64.80;;;;;;5087529;27;43970;-69
2022/07/25 06:38:40;;;;;;;2.40;2.40;;;25.60;65.10;;;;;;5087524;27;43866;-70
2022/07/25 06:41:08;;;;;;;2.38;2.38;;;25.50;65.40;;;;;;5087255;27;44018;-70
2022/07/25 06:43:36;;;;;;;2.10;2.10;;;25.40;65.70;;;;;;5088134;27;43351;-70
2022/07/25 06:46:06;;;;;;;2.35;2.35;;;25.40;66.00;;;;;;5106994;27;43983;-69
2022/07/25 06:48:34;;;;;;;2.40;2.40;;;25.30;66.10;;;;;;5088665;27;45472;-69
2022/07/25 06:51:02;;;;;;;2.80;2.80;;;25.30;66.30;;;;;;5107232;27;43294;-70
2022/07/25 06:53:30;;;;;;;2.50;2.50;;;25.20;66.40;;;;;;5089133;27;44228;-69
2022/07/25 06:55:57;;;;;;;2.42;2.42;;;25.20;66.60;;;;;;5107216;27;43972;-69
2022/07/25 06:58:25;;;;;;;2.67;2.67;;;25.10;66.70;;;;;;5106711;27;43945;-69
2022/07/25 07:00:53;;;;;;;2.70;2.70;;;25.10;67.50;;;;;;5110242;27;43804;-69
2022/07/25 07:03:23;;;;;;;2.33;2.33;;;25.20;67.70;;;;;;5086198;28;43573;-69
2022/07/25 07:05:51;;;;;;;2.60;2.60;;;25.30;67.50;;;;;;5110840;27;44047;-70
2022/07/25 07:08:19;;;;;;;2.40;2.40;;;25.40;67.20;;;;;;5110719;27;44333;-69
2022/07/25 07:10:47;;;;;;;2.97;2.80;;;25.50;66.60;;;;;;5090883;27;43905;-69
2022/07/25 07:13:17;;;;;;;2.50;2.50;;;25.60;66.10;;;;;;5104556;27;43900;-69
2022/07/25 07:15:51;;;;;;;3.00;2.90;;;25.80;65.80;;;;;;5090664;27;44952;-69
2022/07/25 07:18:19;;;;;;;2.60;2.60;;;25.90;65.40;;;;;;5090739;27;43986;-69
2022/07/25 07:20:48;;;;;;;2.40;2.40;;;26.00;65.00;;;;;;5090744;27;43872;-69
2022/07/25 07:23:16;;;;;;;2.67;2.60;;;26.10;64.40;;;;;;5091081;27;43940;-69
2022/07/25 07:25:45;;;;;;;2.30;2.30;;;26.30;64.00;;;;;;5098185;27;45076;-70
2022/07/25 07:28:14;;;;;;;2.50;2.50;;;26.30;63.60;;;;;;5110233;27;43992;-69
2022/07/25 07:30:42;;;;;;;2.70;2.70;;;26.40;63.40;;;;;;5091526;27;43896;-70
2022/07/25 07:33:31;;;;;;;2.85;2.85;;;26.40;63.20;;;;;;5081922;28;44247;-68
2022/07/25 07:36:01;;;;;;;2.50;2.50;;;26.30;63.70;;;;;;5090745;27;43935;-70
2022/07/25 07:38:29;;;;;;;2.50;2.50;;;26.10;64.10;;;;;;5090373;27;43901;-70
2022/07/25 07:40:57;;;;;;;2.85;2.85;;;26.00;64.40;;;;;;5090371;27;43979;-69
2022/07/25 07:43:25;;;;;;;2.60;2.50;;;25.80;64.80;;;;;;5090826;27;44000;-69
2022/07/25 07:45:59;;;;;;;2.47;2.47;;;25.60;65.10;;;;;;5071399;28;45127;-69
2022/07/25 07:48:28;;;;;;;2.40;2.40;;;25.50;65.50;;;;;;5090450;27;43380;-69
2022/07/25 07:50:56;;;;;;;2.50;2.50;;;25.50;65.80;;;;;;5090120;27;43987;-70
2022/07/25 07:55:42;;;;;;;2.60;2.60;;;25.30;65.90;;;;;;5090485;27;43908;-70
2022/07/25 07:56:12;;;;;;;2.50;2.50;;;25.30;66.20;;;;;;5091499;27;43956;-69
2022/07/25 07:58:40;;;;;;;2.72;2.72;;;25.20;66.30;;;;;;5101864;27;44042;-70
2022/07/25 08:01:08;;;;;;;2.58;2.58;;;25.20;66.50;;;;;;5090051;27;43921;-69
2022/07/25 08:03:36;;;;;;;2.60;2.60;;;25.10;66.50;;;;;;5090408;27;44030;-70
2022/07/25 08:06:04;;;;;;;2.78;2.78;;;25.10;66.60;;;;;;5071616;27;45086;-68
2022/07/25 08:08:34;;;;;;;2.90;2.90;;;25.10;67.40;;;;;;5089990;27;43451;-69
2022/07/25 08:11:02;;;;;;;3.00;3.00;;;25.10;67.70;;;;;;5096383;27;43892;-69
2022/07/25 08:13:32;;;;;;;2.75;2.75;;;25.20;67.40;;;;;;5090778;27;43397;-69
2022/07/25 08:16:02;;;;;;;2.63;2.63;;;25.30;67.10;;;;;;5090060;27;44062;-70
2022/07/25 08:18:31;;;;;;;2.83;2.83;;;25.40;66.90;;;;;;5098899;27;43971;-69
2022/07/25 08:21:00;;;;;;;2.67;2.67;;;25.50;66.30;;;;;;5109618;27;44041;-70
2022/07/25 08:23:30;;;;;;;3.15;3.15;;;25.60;65.70;;;;;;5091610;27;43830;-69
2022/07/25 08:26:00;;;;;;;3.10;3.10;;;25.80;65.40;;;;;;5091128;27;45313;-70
2022/07/25 08:28:28;;;;;;;3.08;2.97;;;25.90;65.00;;;;;;5109287;27;44569;-69
2022/07/25 08:30:56;;;;;;;2.85;2.85;;;26.00;64.60;;;;;;5109344;27;44093;-70
2022/07/25 08:33:25;;;;;;;2.88;2.78;;;26.10;64.10;;;;;;5109666;27;44097;-69
2022/07/25 08:35:53;;;;;;;3.05;3.00;;;26.20;63.60;;;;;;5109216;27;43926;-69
2022/07/25 08:38:22;;;;;;;3.10;3.00;;;26.30;63.30;;;;;;5109016;27;44159;-69
2022/07/25 08:40:50;;;;;;;3.08;3.08;;;26.40;63.00;;;;;;5108927;27;44132;-69
2022/07/25 08:43:20;;;;;;;3.30;3.20;;;26.50;62.70;;;;;;5109662;27;43994;-69
2022/07/25 08:45:51;;;;;;;3.10;3.10;;;26.40;63.10;;;;;;5105164;27;45092;-69
2022/07/25 08:48:20;;;;;;;3.03;3.03;;;26.20;63.50;;;;;;5089335;27;43408;-69
2022/07/25 08:50:48;;;;;;;3.28;3.17;;;26.00;64.00;;;;;;5089472;27;43987;-69
2022/07/25 08:53:17;;;;;;;2.83;2.83;;;25.90;64.40;;;;;;5089557;27;43905;-69
2022/07/25 08:56:03;;;;;;;3.00;2.95;;;25.70;64.80;;;;;;5089538;27;43928;-70
2022/07/25 08:58:40;;;;;;;2.92;2.90;;;25.60;65.00;;;;;;5083650;27;43892;-69
2022/07/25 09:01:08;;;;;;;3.47;3.38;;;25.50;65.30;;;;;;5089456;27;43919;-69
2022/07/25 09:03:36;;;;;;;3.15;3.15;;;25.40;65.60;;;;;;5089381;27;44013;-69
2022/07/25 09:06:14;;;;;;;3.10;3.00;;;25.30;65.80;;;;;;5089053;27;43913;-69
2022/07/25 09:08:51;;;;;;;3.10;3.10;;;25.30;66.00;;;;;;5098463;27;43421;-69
2022/07/25 09:11:30;;;;;;;3.17;3.17;;;25.20;66.20;;;;;;5098202;27;43964;-69
2022/07/25 09:14:00;;;;;;;3.20;3.10;;;25.10;66.20;;;;;;5089672;27;43884;-70
2022/07/25 09:16:30;;;;;;;3.10;3.10;;;25.10;66.40;;;;;;5083252;27;45870;-69
2022/07/25 09:19:12;;;;;;;3.25;3.25;;;25.10;66.50;;;;;;5108678;27;43355;-69
2022/07/25 09:21:40;;;;;;;3.50;3.50;;;25.10;67.40;;;;;;5108611;27;44058;-69
2022/07/25 09:24:09;;;;;;;3.40;3.23;;;25.10;67.80;;;;;;5107940;27;43749;-69
2022/07/25 09:26:45;;;;;;;3.47;3.27;;;25.10;66.60;;;;;;5108140;27;44248;-69
2022/07/25 09:29:18;;;;;;;3.50;3.40;;;25.30;66.60;;;;;;5107896;27;44002;-69
2022/07/25 09:31:46;;;;;;;3.90;3.70;;;25.40;66.40;;;;;;5108337;27;43915;-70
2022/07/25 09:34:17;;;;;;;3.70;3.60;;;25.50;66.10;;;;;;5108747;27;44059;-70
2022/07/25 09:36:52;;;;;;;3.90;3.60;;;25.60;65.70;;;;;;5108196;27;44077;-70
2022/07/25 09:39:20;;;;;;;3.90;3.80;;;25.90;65.30;;;;;;5097002;27;43921;-69
2022/07/25 09:41:49;;;;;;;3.60;3.40;;;26.00;64.80;;;;;;5088071;27;43928;-69
2022/07/25 09:44:21;;;;;;;3.60;3.30;;;26.10;64.30;;;;;;5089086;27;43984;-70
2022/07/25 09:46:49;;;;;;;4.00;3.70;;;26.30;63.80;;;;;;5088744;27;44003;-69
2022/07/25 09:49:18;;;;;;;3.60;3.30;;;26.30;63.40;;;;;;5088624;27;43797;-70
2022/07/25 09:51:46;;;;;;;3.60;3.50;;;26.50;63.30;;;;;;5081972;27;43976;-69
2022/07/25 09:54:14;;;;;;;3.45;3.35;;;26.50;62.80;;;;;;5089676;27;44011;-70
2022/07/25 09:56:42;;;;;;;3.40;3.30;;;26.60;62.80;;;;;;5088231;27;44043;-69
2022/07/25 09:59:10;;;;;;;3.50;3.38;;;26.70;62.50;;;;;;5088108;27;44039;-70
2022/07/25 10:01:42;;;;;;;3.47;3.20;;;26.70;62.30;;;;;;5100610;27;43876;-70
2022/07/25 10:04:14;;;;;;;3.72;3.63;;;26.70;62.20;;;;;;5108298;27;43956;-69
2022/07/25 10:06:48;;;;;;;3.50;3.40;;;26.70;62.40;;;;;;5081107;27;43952;-68
2022/07/25 10:09:16;;;;;;;3.60;3.40;;;26.50;62.90;;;;;;5082011;27;43974;-69
2022/07/25 10:12:05;;;;;;;3.67;3.58;;;26.30;63.50;;;;;;5088448;27;43738;-69
2022/07/25 10:14:33;;;;;;;3.50;3.40;;;26.10;64.10;;;;;;5089583;27;43949;-69
2022/07/25 10:17:03;;;;;;;3.55;3.45;;;25.90;64.50;;;;;;5089178;27;46079;-69
2022/07/25 10:19:41;;;;;;;3.55;3.45;;;25.80;64.90;;;;;;5107736;27;44038;-70
2022/07/25 10:22:16;;;;;;;3.45;3.35;;;25.60;65.30;;;;;;5094833;27;44049;-69
2022/07/25 10:24:56;;;;;;;3.47;3.38;;;25.50;65.60;;;;;;5088303;27;43968;-69
2022/07/25 10:27:24;;;;;;;3.40;3.20;;;25.40;65.90;;;;;;5085089;27;43955;-70
2022/07/25 10:29:53;;;;;;;3.00;3.00;;;25.40;66.20;;;;;;5087848;27;43916;-69
2022/07/25 10:32:25;;;;;;;3.47;3.38;;;25.30;66.40;;;;;;5095549;27;44050;-69
2022/07/25 10:34:53;;;;;;;3.40;3.30;;;25.30;66.50;;;;;;5073870;27;44246;-69
2022/07/25 10:37:26;;;;;;;3.33;3.22;;;25.30;67.30;;;;;;5087551;27;44796;-69
2022/07/25 10:39:55;;;;;;;3.35;3.25;;;25.30;67.40;;;;;;5087498;27;43394;-70
2022/07/25 10:42:24;;;;;;;3.60;3.50;;;25.30;67.10;;;;;;5087388;27;43979;-70
2022/07/25 10:44:56;;;;;;;3.33;3.23;;;25.50;66.80;;;;;;5087792;27;43389;-69
2022/07/25 10:47:26;;;;;;;3.60;3.40;;;25.60;66.30;;;;;;5097173;27;43767;-69
2022/07/25 10:49:56;;;;;;;3.13;3.13;;;25.70;65.90;;;;;;5107165;27;43402;-69
2022/07/25 10:52:44;;;;;;;3.45;3.28;;;25.80;65.50;;;;;;5107654;27;44000;-69
2022/07/25 10:55:22;;;;;;;3.70;3.60;;;25.90;65.10;;;;;;5107606;27;43896;-69
2022/07/25 10:57:59;;;;;;;3.22;3.13;;;26.10;64.60;;;;;;5092567;27;45397;-69
2022/07/25 11:00:44;;;;;;;3.47;3.38;;;26.20;64.00;;;;;;5087248;27;43987;-69
2022/07/25 11:03:14;;;;;;;3.67;3.58;;;26.30;63.50;;;;;;5087427;27;43870;-70
2022/07/25 11:05:46;;;;;;;4.00;3.78;;;26.40;63.20;;;;;;5087778;27;44045;-70
2022/07/25 11:08:14;;;;;;;3.72;3.53;;;26.50;62.80;;;;;;5087022;27;44063;-69
2022/07/25 11:10:51;;;;;;;3.78;3.67;;;26.60;62.80;;;;;;5068492;28;43890;-69
2022/07/25 11:13:19;;;;;;;3.45;3.40;;;26.50;63.10;;;;;;5080856;27;43924;-70
2022/07/25 11:15:47;;;;;;;3.70;3.60;;;26.30;63.50;;;;;;5081320;27;43575;-69
2022/07/25 11:18:17;;;;;;;3.65;3.55;;;26.10;64.00;;;;;;5106417;27;43919;-70
2022/07/25 11:20:45;;;;;;;3.47;3.38;;;25.90;64.40;;;;;;5093072;27;44005;-70
2022/07/25 11:23:13;;;;;;;3.55;3.45;;;25.80;64.80;;;;;;5087218;27;43889;-70
2022/07/25 11:25:42;;;;;;;3.30;3.30;;;25.60;65.00;;;;;;5085635;27;44191;-70
2022/07/25 11:28:11;;;;;;;3.50;3.40;;;25.60;65.50;;;;;;5086976;27;44400;-69
2022/07/25 11:30:38;;;;;;;3.40;3.38;;;25.50;65.80;;;;;;5086904;27;43992;-69
2022/07/25 11:33:07;;;;;;;3.63;3.50;;;25.40;66.10;;;;;;5086872;27;43940;-69
2022/07/25 11:35:36;;;;;;;3.60;3.50;;;25.30;66.10;;;;;;5068774;27;43431;-69
2022/07/25 11:38:04;;;;;;;3.53;3.42;;;25.30;66.40;;;;;;5100854;27;43952;-70
2022/07/25 11:40:33;;;;;;;4.22;4.13;;;25.20;66.50;;;;;;5106269;27;43943;-69
2022/07/25 11:43:02;;;;;;;3.67;3.58;;;25.20;66.60;;;;;;5086372;28;43932;-69
2022/07/25 11:45:32;;;;;;;3.60;3.50;;;25.20;68.10;;;;;;5086484;27;43755;-70
2022/07/25 11:48:04;;;;;;;3.40;3.40;;;25.20;67.50;;;;;;5089518;28;44965;-70
2022/07/25 11:50:33;;;;;;;3.53;3.50;;;25.30;67.40;;;;;;5089728;28;43754;-70
2022/07/25 11:53:04;;;;;;;3.80;3.70;;;25.40;66.90;;;;;;5062598;28;43953;-69
2022/07/25 11:55:35;;;;;;;3.83;3.73;;;25.50;66.50;;;;;;5051175;28;44179;-70
2022/07/25 11:58:04;;;;;;;3.88;3.78;;;25.60;66.00;;;;;;5069476;28;44730;-70
2022/07/25 12:00:34;;;;;;;4.03;3.92;;;25.80;65.60;;;;;;5069958;28;43872;-69
2022/07/25 12:03:06;;;;;;;3.55;3.45;;;25.90;65.30;;;;;;5070262;28;43818;-70
2022/07/25 12:05:34;;;;;;;3.85;3.75;;;26.00;64.80;;;;;;5080784;28;43977;-70
2022/07/25 12:08:09;;;;;;;4.18;4.07;;;26.10;64.40;;;;;;5089199;28;44998;-70
2022/07/25 12:10:37;;;;;;;3.47;3.38;;;26.20;64.00;;;;;;5089179;28;44090;-69
2022/07/25 12:13:06;;;;;;;3.80;3.70;;;26.30;63.50;;;;;;5071044;28;44023;-69
2022/07/25 12:15:37;;;;;;;3.70;3.60;;;26.40;63.20;;;;;;5069861;28;43835;-70
2022/07/25 12:18:05;;;;;;;4.05;3.95;;;26.50;62.80;;;;;;5069418;28;44838;-70
2022/07/25 12:20:35;;;;;;;3.72;3.58;;;26.40;63.00;;;;;;5069293;28;43402;-69
2022/07/25 12:23:04;;;;;;;3.53;3.42;;;26.30;63.60;;;;;;5069462;28;44079;-69
2022/07/25 12:25:33;;;;;;;4.05;3.95;;;26.10;64.80;;;;;;5069809;28;43826;-69
2022/07/25 12:28:01;;;;;;;3.67;3.58;;;26.00;64.40;;;;;;5069507;28;44274;-69
2022/07/25 12:30:29;;;;;;;3.60;3.50;;;25.80;64.60;;;;;;5069192;28;44007;-70
2022/07/25 12:32:58;;;;;;;3.47;3.40;;;25.60;64.90;;;;;;5070132;28;43958;-70
2022/07/25 12:35:26;;;;;;;3.47;3.38;;;25.50;65.20;;;;;;5089079;28;44259;-70
2022/07/25 12:37:57;;;;;;;3.38;3.38;;;25.50;65.60;;;;;;5088547;28;45138;-69
2022/07/25 12:40:25;;;;;;;3.85;3.60;;;25.40;65.90;;;;;;5062027;28;43896;-70
2022/07/25 12:42:56;;;;;;;3.50;3.40;;;25.30;66.00;;;;;;5081437;27;44018;-68
2022/07/25 12:45:24;;;;;;;3.60;3.50;;;25.30;66.20;;;;;;5083441;27;43874;-69
2022/07/25 12:47:52;;;;;;;3.92;3.83;;;25.20;66.30;;;;;;5089166;27;44044;-69
2022/07/25 12:50:20;;;;;;;3.80;3.60;;;25.20;66.50;;;;;;5089020;27;43987;-68
2022/07/25 12:52:48;;;;;;;3.80;3.60;;;25.20;67.40;;;;;;5089254;27;43295;-69
2022/07/25 12:55:17;;;;;;;3.75;3.63;;;25.20;67.40;;;;;;5089816;27;43921;-69
2022/07/25 12:57:45;;;;;;;3.80;3.70;;;25.30;67.10;;;;;;5088661;27;44044;-69
2022/07/25 13:00:16;;;;;;;3.78;3.67;;;25.40;66.70;;;;;;5088896;27;43904;-69